Time;durP1;ratioP1;P1;durP2;ratioP2;P2;SDS_P1;SDS_P2;PMS_P1;PMS_P2;Temp;Humidity;BMP_temperature;BMP_pressure;BME280_temperature;BME280_humidity;BME280_pressure;Samples;Min_cycle;Max_cycle;Signal;HPM_P1;HPM_P2
2021/09/23 00:00:24;;;;;;;14.98;7.85;;;11.90;72.60;;;;;;5016292;28;20046;-88
2021/09/23 00:05:25;;;;;;;10.02;6.85;;;11.90;72.70;;;;;;5014438;28;20059;-87
2021/09/23 00:07:55;;;;;;;12.65;8.02;;;11.90;72.70;;;;;;5012578;28;20061;-87
2021/09/23 00:10:31;;;;;;;10.02;7.55;;;11.90;72.70;;;;;;4997884;28;20050;-87
2021/09/23 00:12:59;;;;;;;9.43;7.30;;;11.80;72.60;;;;;;5016734;28;20064;-87
2021/09/23 00:15:27;;;;;;;10.32;6.57;;;11.80;72.60;;;;;;5019770;28;20052;-88
2021/09/23 00:17:57;;;;;;;11.02;8.77;;;11.70;72.60;;;;;;5019408;28;20529;-87
2021/09/23 00:20:28;;;;;;;9.30;7.55;;;11.80;72.60;;;;;;5018812;28;20625;-88
2021/09/23 00:22:56;;;;;;;12.20;7.95;;;11.70;72.70;;;;;;5016051;28;20046;-87
2021/09/23 00:25:26;;;;;;;12.75;7.85;;;11.70;72.80;;;;;;5018880;28;20058;-87
2021/09/23 00:27:54;;;;;;;14.10;7.60;;;11.70;72.80;;;;;;5019366;28;20062;-87
2021/09/23 00:30:21;;;;;;;9.85;7.95;;;11.60;72.90;;;;;;5019997;28;20046;-87
2021/09/23 00:32:51;;;;;;;12.70;8.02;;;11.60;73.00;;;;;;5019350;28;20056;-87
2021/09/23 00:35:19;;;;;;;11.80;8.20;;;11.60;73.10;;;;;;5017610;28;20080;-87
2021/09/23 00:37:46;;;;;;;11.68;7.85;;;11.60;73.20;;;;;;5016921;28;20061;-88
2021/09/23 00:40:13;;;;;;;9.63;7.50;;;11.60;73.20;;;;;;5032244;28;20457;-87
2021/09/23 00:42:41;;;;;;;13.43;9.00;;;11.50;73.20;;;;;;5018577;28;20046;-87
2021/09/23 00:45:10;;;;;;;13.43;9.00;;;11.50;73.20;;;;;;5016401;28;20049;-88
2021/09/23 00:47:38;;;;;;;10.20;7.93;;;11.50;73.30;;;;;;5015948;28;20499;-87
2021/09/23 00:50:06;;;;;;;11.85;8.55;;;11.50;73.30;;;;;;5016497;28;20045;-87
2021/09/23 00:52:37;;;;;;;12.98;8.60;;;11.50;73.40;;;;;;5014082;28;20075;-87
2021/09/23 00:55:06;;;;;;;11.70;8.85;;;11.40;73.40;;;;;;5016156;28;20053;-87
2021/09/23 00:57:33;;;;;;;10.20;7.78;;;11.40;73.50;;;;;;5016173;28;20054;-88
2021/09/23 01:00:00;;;;;;;12.70;8.75;;;11.40;73.50;;;;;;5016069;28;20046;-88
2021/09/23 01:02:27;;;;;;;10.63;7.57;;;11.40;73.60;;;;;;5015979;28;20050;-88
2021/09/23 01:04:55;;;;;;;15.50;8.55;;;11.40;73.60;;;;;;5015356;28;20581;-88
2021/09/23 01:07:22;;;;;;;17.13;8.85;;;11.40;73.60;;;;;;5014293;28;20494;-87
2021/09/23 01:09:51;;;;;;;14.00;9.05;;;11.30;73.60;;;;;;4998580;28;20053;-87
2021/09/23 01:12:20;;;;;;;16.95;8.43;;;11.30;73.70;;;;;;5016023;28;20049;-87
2021/09/23 01:14:48;;;;;;;11.35;8.10;;;11.30;73.70;;;;;;5015896;28;20045;-86
2021/09/23 01:17:15;;;;;;;11.40;8.68;;;11.20;73.60;;;;;;5015604;28;20049;-87
2021/09/23 01:19:44;;;;;;;12.60;9.20;;;11.20;73.60;;;;;;5013912;28;20474;-88
2021/09/23 01:22:12;;;;;;;14.38;9.00;;;11.20;73.70;;;;;;5017905;28;20049;-87
2021/09/23 01:24:39;;;;;;;11.75;8.43;;;11.20;73.80;;;;;;5017773;28;20062;-87
2021/09/23 01:27:07;;;;;;;11.45;9.10;;;11.20;74.00;;;;;;5000926;28;20065;-87
2021/09/23 01:29:36;;;;;;;11.75;9.10;;;11.10;74.00;;;;;;5018622;28;20046;-87
2021/09/23 01:32:05;;;;;;;19.13;8.48;;;11.10;74.10;;;;;;5014110;28;20099;-87
2021/09/23 01:34:33;;;;;;;13.98;8.88;;;11.10;74.20;;;;;;5016825;28;20050;-87
2021/09/23 01:37:03;;;;;;;11.07;7.93;;;11.10;74.20;;;;;;5015246;28;20502;-86
2021/09/23 01:39:29;;;;;;;11.60;8.98;;;11.10;74.20;;;;;;5015406;28;20049;-88
2021/09/23 01:41:57;;;;;;;11.48;9.00;;;11.00;74.10;;;;;;5015296;28;20523;-87
2021/09/23 01:44:24;;;;;;;13.18;9.30;;;11.00;74.20;;;;;;5015491;28;20050;-87
2021/09/23 01:46:51;;;;;;;13.40;9.70;;;11.00;74.20;;;;;;5013337;28;20844;-88
2021/09/23 01:49:18;;;;;;;13.68;9.25;;;11.00;74.30;;;;;;5017327;28;20050;-87
2021/09/23 01:51:45;;;;;;;13.30;9.40;;;11.00;74.30;;;;;;5018142;28;20494;-88
2021/09/23 01:54:13;;;;;;;12.30;9.30;;;10.90;74.30;;;;;;5018151;28;20061;-87
2021/09/23 01:56:40;;;;;;;14.00;9.45;;;11.00;74.40;;;;;;5017948;28;20049;-87
2021/09/23 01:59:07;;;;;;;14.73;9.48;;;10.90;74.40;;;;;;5014357;28;20042;-87
2021/09/23 02:01:34;;;;;;;18.25;9.20;;;10.90;74.40;;;;;;5016123;28;20097;-87
2021/09/23 02:04:01;;;;;;;12.77;9.48;;;10.90;74.50;;;;;;5017909;28;20048;-87
2021/09/23 02:06:29;;;;;;;15.60;9.73;;;10.90;74.50;;;;;;4997392;28;20053;-86
2021/09/23 02:08:56;;;;;;;12.27;8.80;;;10.90;74.50;;;;;;5017910;28;20111;-87
2021/09/23 02:11:23;;;;;;;13.40;10.20;;;10.90;74.50;;;;;;5016303;28;20391;-87
2021/09/23 02:13:49;;;;;;;13.75;9.57;;;10.90;74.60;;;;;;5014255;28;20053;-87
2021/09/23 02:16:16;;;;;;;13.93;9.32;;;10.80;74.60;;;;;;5013781;28;20057;-87
2021/09/23 02:18:43;;;;;;;15.30;10.07;;;10.80;74.70;;;;;;5014668;28;20046;-87
2021/09/23 02:21:10;;;;;;;17.48;10.32;;;10.80;74.70;;;;;;5014693;28;20062;-85
2021/09/23 02:23:37;;;;;;;11.80;8.40;;;10.80;74.70;;;;;;5014653;28;20518;-87
2021/09/23 02:26:05;;;;;;;20.08;10.63;;;10.70;74.90;;;;;;5014692;28;20050;-87
2021/09/23 02:28:37;;;;;;;16.88;11.45;;;10.70;74.90;;;;;;5011628;28;20068;-86
2021/09/23 02:31:05;;;;;;;15.45;10.63;;;10.70;75.00;;;;;;5014338;28;20050;-87
2021/09/23 02:33:33;;;;;;;15.15;11.10;;;10.70;75.10;;;;;;5014278;28;20058;-87
2021/09/23 02:36:01;;;;;;;18.55;10.77;;;10.60;75.10;;;;;;5014107;28;20050;-87
2021/09/23 02:38:28;;;;;;;16.23;11.85;;;10.60;75.20;;;;;;5014446;28;20042;-87
2021/09/23 02:40:55;;;;;;;19.50;11.70;;;10.60;75.30;;;;;;5013548;28;20060;-86
2021/09/23 02:43:22;;;;;;;15.73;11.32;;;10.60;75.40;;;;;;5012238;28;20133;-88
2021/09/23 02:45:50;;;;;;;16.15;12.23;;;10.50;75.50;;;;;;5014177;28;20065;-86
2021/09/23 02:48:17;;;;;;;14.32;10.30;;;10.60;75.60;;;;;;5014046;28;20065;-86
2021/09/23 02:50:43;;;;;;;20.17;12.15;;;10.60;75.60;;;;;;5017024;28;20068;-87
2021/09/23 02:53:10;;;;;;;21.83;12.82;;;10.50;75.70;;;;;;5014019;28;20061;-86
2021/09/23 02:55:37;;;;;;;18.75;12.23;;;10.50;75.70;;;;;;5014730;28;20046;-86
2021/09/23 02:58:04;;;;;;;19.63;12.32;;;10.50;75.90;;;;;;5013452;28;20046;-87
2021/09/23 03:00:31;;;;;;;18.92;14.02;;;10.50;75.90;;;;;;5014045;28;20042;-87
2021/09/23 03:02:58;;;;;;;18.38;13.75;;;10.50;76.00;;;;;;5016849;28;20050;-86
2021/09/23 03:05:25;;;;;;;15.82;10.45;;;10.50;76.10;;;;;;4998606;28;20458;-88
2021/09/23 03:07:52;;;;;;;13.50;11.38;;;10.50;76.30;;;;;;5013401;28;20111;-86
2021/09/23 03:10:19;;;;;;;15.73;13.23;;;10.40;76.40;;;;;;5016006;28;20052;-87
2021/09/23 03:12:46;;;;;;;27.00;14.18;;;10.40;76.40;;;;;;5016300;28;20107;-87
2021/09/23 03:15:13;;;;;;;16.98;13.40;;;10.50;76.50;;;;;;5016579;28;20071;-88
2021/09/23 03:17:40;;;;;;;16.95;12.63;;;10.50;76.70;;;;;;5016611;28;20123;-86
2021/09/23 03:20:07;;;;;;;15.18;11.32;;;10.50;76.70;;;;;;4995630;28;20092;-87
2021/09/23 03:22:34;;;;;;;17.92;11.43;;;10.50;76.70;;;;;;5014648;28;20576;-86
2021/09/23 03:25:01;;;;;;;17.20;12.27;;;10.50;76.80;;;;;;5016548;28;20050;-87
2021/09/23 03:27:28;;;;;;;19.33;12.00;;;10.50;76.70;;;;;;5005751;28;20065;-85
2021/09/23 03:29:55;;;;;;;16.35;12.18;;;10.50;76.70;;;;;;5021821;28;20111;-87
2021/09/23 03:32:22;;;;;;;19.23;11.18;;;10.50;76.70;;;;;;5013571;28;20107;-87
2021/09/23 03:34:49;;;;;;;13.73;10.40;;;10.50;76.60;;;;;;5011946;28;20721;-86
2021/09/23 03:37:16;;;;;;;15.20;10.88;;;10.50;76.50;;;;;;5012446;28;20088;-86
2021/09/23 03:39:43;;;;;;;16.75;11.20;;;10.50;76.40;;;;;;5013312;28;20569;-87
2021/09/23 03:42:10;;;;;;;14.05;10.25;;;10.50;76.30;;;;;;5013066;28;20050;-86
2021/09/23 03:44:37;;;;;;;18.98;10.80;;;10.50;76.30;;;;;;5016131;28;20053;-86
2021/09/23 03:47:04;;;;;;;15.65;10.35;;;10.50;76.30;;;;;;5012241;28;20049;-86
2021/09/23 03:49:31;;;;;;;17.33;10.45;;;10.50;76.20;;;;;;5014202;28;20454;-86
2021/09/23 03:51:58;;;;;;;15.48;9.80;;;10.50;76.00;;;;;;5016171;28;20045;-86
2021/09/23 03:54:25;;;;;;;19.27;11.13;;;10.50;75.80;;;;;;5016241;28;20050;-86
2021/09/23 03:56:52;;;;;;;15.73;10.02;;;10.40;75.80;;;;;;5012709;28;20053;-87
2021/09/23 03:59:19;;;;;;;13.38;9.88;;;10.40;75.80;;;;;;5013270;28;20091;-87
2021/09/23 04:01:48;;;;;;;15.07;10.20;;;10.40;75.70;;;;;;5011281;28;20050;-86
2021/09/23 04:04:16;;;;;;;14.82;10.73;;;10.40;75.60;;;;;;5012290;28;20518;-86
2021/09/23 04:06:43;;;;;;;15.10;9.60;;;10.40;75.60;;;;;;5013045;28;20482;-86
2021/09/23 04:09:11;;;;;;;14.20;10.88;;;10.40;75.60;;;;;;5016097;28;20064;-85
2021/09/23 04:11:39;;;;;;;13.90;9.32;;;10.40;75.50;;;;;;5015669;28;20115;-86
2021/09/23 04:14:07;;;;;;;15.00;10.55;;;10.40;75.50;;;;;;5012536;28;20535;-86
2021/09/23 04:16:34;;;;;;;13.82;9.73;;;10.40;75.50;;;;;;5014112;28;20045;-86
2021/09/23 04:19:01;;;;;;;12.43;9.25;;;10.30;75.40;;;;;;5015940;28;20072;-86
2021/09/23 04:21:28;;;;;;;14.55;10.85;;;10.40;75.40;;;;;;5012808;28;20569;-86
2021/09/23 04:23:55;;;;;;;13.82;10.23;;;10.30;75.40;;;;;;5015746;28;20096;-87
2021/09/23 04:26:22;;;;;;;14.70;10.68;;;10.30;75.30;;;;;;5014319;28;20057;-86
2021/09/23 04:28:49;;;;;;;14.07;10.90;;;10.20;75.30;;;;;;5012485;28;20507;-86
2021/09/23 04:31:16;;;;;;;13.85;9.80;;;10.20;75.30;;;;;;5015040;28;20499;-86
2021/09/23 04:33:43;;;;;;;14.90;10.30;;;10.20;75.10;;;;;;5015850;28;20430;-85
2021/09/23 04:36:10;;;;;;;11.52;8.75;;;10.20;75.10;;;;;;5015714;28;20050;-87
2021/09/23 04:38:37;;;;;;;14.75;10.52;;;10.20;75.00;;;;;;5015572;28;20041;-86
2021/09/23 04:41:04;;;;;;;16.73;10.55;;;10.20;75.00;;;;;;5011959;28;20038;-86
2021/09/23 04:43:31;;;;;;;14.93;10.77;;;10.10;74.90;;;;;;5014146;28;20060;-86
2021/09/23 04:45:58;;;;;;;13.00;11.18;;;10.10;75.00;;;;;;5015766;28;20042;-86
2021/09/23 04:48:25;;;;;;;16.00;11.98;;;10.00;75.10;;;;;;5015524;28;20050;-86
2021/09/23 04:50:52;;;;;;;19.25;12.52;;;10.00;75.20;;;;;;5015572;28;20049;-85
2021/09/23 04:53:19;;;;;;;19.10;12.48;;;10.00;75.40;;;;;;5013503;28;20465;-86
2021/09/23 04:55:46;;;;;;;17.73;13.32;;;10.00;75.60;;;;;;5012970;28;20053;-86
2021/09/23 04:58:13;;;;;;;17.60;11.23;;;9.90;75.70;;;;;;5014764;28;20168;-85
2021/09/23 05:00:40;;;;;;;16.15;12.18;;;9.90;75.80;;;;;;4999751;28;20491;-86
2021/09/23 05:03:07;;;;;;;24.15;13.07;;;9.90;75.90;;;;;;5019251;28;20139;-85
2021/09/23 05:05:34;;;;;;;15.00;11.68;;;9.90;75.90;;;;;;5018956;28;20041;-86
2021/09/23 05:08:01;;;;;;;20.58;12.15;;;9.90;76.00;;;;;;5014542;28;20057;-86
2021/09/23 05:10:28;;;;;;;15.63;12.98;;;9.90;76.00;;;;;;5017936;28;20458;-86
2021/09/23 05:12:55;;;;;;;16.10;12.90;;;9.90;76.10;;;;;;5016176;28;20053;-86
2021/09/23 05:15:22;;;;;;;19.48;13.10;;;9.90;76.10;;;;;;5015801;28;20046;-85
2021/09/23 05:17:49;;;;;;;17.60;12.23;;;9.80;76.30;;;;;;5015796;28;20049;-86
2021/09/23 05:20:16;;;;;;;20.33;14.98;;;9.80;76.40;;;;;;5015850;28;20056;-86
2021/09/23 05:22:43;;;;;;;19.48;13.82;;;9.80;76.50;;;;;;5013464;28;20510;-86
2021/09/23 05:25:11;;;;;;;20.23;15.10;;;9.80;76.60;;;;;;5017853;28;20057;-86
2021/09/23 05:27:39;;;;;;;21.80;15.25;;;9.80;76.70;;;;;;5018256;28;20112;-85
2021/09/23 05:30:09;;;;;;;20.17;14.95;;;9.80;76.80;;;;;;5018507;28;20089;-87
2021/09/23 05:32:36;;;;;;;18.77;14.75;;;9.80;77.00;;;;;;5018605;28;20042;-86
2021/09/23 05:35:03;;;;;;;20.98;16.08;;;9.80;77.10;;;;;;5014673;28;20100;-86
2021/09/23 05:37:30;;;;;;;22.98;15.10;;;9.80;77.20;;;;;;5016618;28;20053;-86
2021/09/23 05:39:58;;;;;;;20.30;16.33;;;9.90;77.30;;;;;;5018862;28;20454;-85
2021/09/23 05:42:25;;;;;;;21.08;15.02;;;9.80;77.50;;;;;;5018633;28;20073;-86
2021/09/23 05:44:51;;;;;;;24.30;16.63;;;9.90;77.60;;;;;;5018296;28;20053;-86
2021/09/23 05:47:18;;;;;;;23.83;17.15;;;9.80;77.70;;;;;;5016359;28;20046;-86
2021/09/23 05:49:45;;;;;;;23.30;15.90;;;9.80;77.80;;;;;;5015675;28;20050;-85
2021/09/23 05:52:12;;;;;;;17.58;13.88;;;9.80;77.90;;;;;;5016942;28;20080;-86
2021/09/23 05:54:39;;;;;;;23.42;15.02;;;9.90;77.90;;;;;;5018098;28;20046;-86
2021/09/23 05:57:06;;;;;;;19.90;16.30;;;9.80;78.00;;;;;;5018060;28;20045;-86
2021/09/23 05:59:33;;;;;;;20.27;14.52;;;9.90;78.00;;;;;;5018035;28;20517;-86
2021/09/23 06:02:00;;;;;;;23.95;15.90;;;9.90;78.10;;;;;;5013355;28;20095;-86
2021/09/23 06:04:28;;;;;;;20.73;15.50;;;9.90;78.20;;;;;;5027753;28;20083;-87
2021/09/23 06:06:55;;;;;;;21.73;15.00;;;9.90;78.20;;;;;;5028193;28;20514;-88
2021/09/23 06:09:22;;;;;;;23.20;17.27;;;9.90;78.10;;;;;;5027603;28;20533;-86
2021/09/23 06:11:49;;;;;;;21.40;17.30;;;9.90;78.20;;;;;;5027507;28;20053;-85
2021/09/23 06:14:16;;;;;;;23.80;16.83;;;9.90;78.30;;;;;;5028024;28;20056;-85
2021/09/23 06:16:43;;;;;;;24.67;17.15;;;9.90;78.30;;;;;;5030264;28;20052;-85
2021/09/23 06:19:10;;;;;;;27.95;17.45;;;9.90;78.30;;;;;;5033447;28;20061;-92
2021/09/23 06:21:39;;;;;;;26.50;17.58;;;9.90;78.40;;;;;;5033331;28;20045;-84
2021/09/23 06:24:06;;;;;;;27.92;19.33;;;9.90;78.50;;;;;;5027584;28;20045;-85
2021/09/23 06:26:34;;;;;;;33.88;21.13;;;9.90;78.60;;;;;;5027520;28;20042;-84
2021/09/23 06:29:01;;;;;;;30.92;21.00;;;9.90;78.70;;;;;;5027424;28;20398;-84
2021/09/23 06:31:28;;;;;;;34.65;21.65;;;9.90;78.90;;;;;;5032087;28;20049;-84
2021/09/23 06:33:55;;;;;;;33.42;20.42;;;9.90;79.20;;;;;;5010317;28;20140;-84
2021/09/23 06:36:21;;;;;;;36.40;23.67;;;9.90;79.50;;;;;;5027052;28;20494;-84
2021/09/23 06:38:48;;;;;;;30.77;22.65;;;9.90;79.80;;;;;;5027336;28;20045;-84
2021/09/23 06:41:15;;;;;;;40.30;24.95;;;9.90;80.10;;;;;;5027413;28;20104;-84
2021/09/23 06:43:44;;;;;;;37.65;25.27;;;9.90;80.40;;;;;;5029926;28;20061;-83
2021/09/23 06:46:13;;;;;;;29.35;20.17;;;10.00;80.60;;;;;;5029540;28;20053;-84
2021/09/23 06:48:40;;;;;;;36.33;24.70;;;10.00;80.90;;;;;;5027068;28;20049;-85
2021/09/23 06:51:07;;;;;;;40.25;27.67;;;10.10;81.10;;;;;;5026905;28;20111;-84
2021/09/23 06:53:34;;;;;;;38.65;22.58;;;10.10;81.20;;;;;;5026974;28;20099;-83
2021/09/23 06:56:01;;;;;;;45.03;27.40;;;10.20;81.50;;;;;;5027198;28;20049;-84
2021/09/23 06:58:28;;;;;;;39.53;25.30;;;10.20;81.60;;;;;;5031483;28;20060;-83
2021/09/23 07:00:55;;;;;;;37.70;24.65;;;10.30;81.90;;;;;;5029007;28;20060;-84
2021/09/23 07:03:22;;;;;;;37.92;25.17;;;10.40;82.00;;;;;;5009324;28;20053;-83
2021/09/23 07:05:50;;;;;;;41.13;26.85;;;10.40;82.00;;;;;;5026630;28;20041;-83
2021/09/23 07:08:18;;;;;;;49.95;30.10;;;10.50;81.90;;;;;;5027022;28;20069;-83
2021/09/23 07:10:46;;;;;;;44.90;28.27;;;10.50;81.90;;;;;;5029084;28;20049;-83
2021/09/23 07:13:13;;;;;;;55.55;32.72;;;10.60;82.10;;;;;;5029393;28;20095;-83
2021/09/23 07:15:40;;;;;;;56.10;32.70;;;10.70;82.40;;;;;;5026515;28;20045;-83
2021/09/23 07:18:07;;;;;;;53.03;32.17;;;10.70;82.60;;;;;;5026249;28;20505;-84
2021/09/23 07:20:34;;;;;;;39.97;26.23;;;10.90;82.70;;;;;;5026907;28;20088;-83
2021/09/23 07:23:01;;;;;;;53.40;30.90;;;10.90;83.00;;;;;;5026979;28;20041;-84
2021/09/23 07:25:28;;;;;;;49.53;30.10;;;11.00;83.00;;;;;;5029617;28;20505;-82
2021/09/23 07:27:56;;;;;;;42.97;26.88;;;11.10;83.10;;;;;;5027809;28;20057;-82
2021/09/23 07:30:24;;;;;;;44.08;28.55;;;11.30;83.20;;;;;;5027858;28;20045;-81
2021/09/23 07:32:52;;;;;;;48.40;28.80;;;11.30;83.30;;;;;;5027360;28;20064;-82
2021/09/23 07:35:19;;;;;;;45.65;27.95;;;11.50;83.40;;;;;;5027514;28;20050;-82
2021/09/23 07:37:46;;;;;;;57.13;31.65;;;11.60;83.40;;;;;;5029567;28;20107;-82
2021/09/23 07:40:13;;;;;;;78.43;39.53;;;11.70;83.50;;;;;;5030037;28;20445;-81
2021/09/23 07:42:40;;;;;;;94.43;41.20;;;11.90;83.50;;;;;;5027398;28;20053;-82
2021/09/23 07:45:08;;;;;;;68.72;35.42;;;12.00;83.60;;;;;;5027526;28;20160;-82
2021/09/23 07:47:35;;;;;;;107.32;44.10;;;12.10;83.70;;;;;;5027220;28;20053;-82
2021/09/23 07:50:03;;;;;;;97.00;45.00;;;12.30;83.80;;;;;;5027336;28;20049;-82
2021/09/23 07:52:29;;;;;;;116.30;45.30;;;12.40;83.90;;;;;;5031782;28;20128;-82
2021/09/23 07:54:56;;;;;;;123.80;46.38;;;12.50;84.00;;;;;;5027053;28;20053;-82
2021/09/23 07:57:23;;;;;;;110.68;44.80;;;12.70;84.30;;;;;;5027297;28;20057;-82
2021/09/23 07:59:51;;;;;;;84.03;41.22;;;12.90;84.50;;;;;;5027874;28;20046;-82
2021/09/23 08:02:18;;;;;;;83.57;39.28;;;13.00;84.70;;;;;;5027565;28;20042;-82
2021/09/23 08:04:46;;;;;;;87.15;42.03;;;13.10;84.80;;;;;;5029146;28;20080;-82
2021/09/23 08:07:17;;;;;;;82.20;41.03;;;13.30;84.80;;;;;;5029652;28;20048;-82
2021/09/23 08:09:45;;;;;;;83.00;38.70;;;13.40;84.90;;;;;;5009879;28;20046;-82
2021/09/23 08:12:13;;;;;;;58.47;33.60;;;13.60;85.00;;;;;;5028626;28;20061;-83
2021/09/23 08:14:40;;;;;;;51.92;33.83;;;13.70;85.00;;;;;;5027143;28;20049;-83
2021/09/23 08:17:07;;;;;;;50.85;31.33;;;13.90;85.00;;;;;;5028773;28;20050;-82
2021/09/23 08:19:37;;;;;;;59.78;32.13;;;14.00;84.90;;;;;;5029720;28;20049;-84
2021/09/23 08:22:06;;;;;;;50.53;31.20;;;14.10;84.90;;;;;;5030622;28;20046;-84
2021/09/23 08:24:34;;;;;;;53.83;28.02;;;14.30;84.80;;;;;;5027294;28;20461;-83
2021/09/23 08:27:02;;;;;;;35.22;22.80;;;14.40;84.70;;;;;;5028285;28;20068;-82
2021/09/23 08:29:29;;;;;;;30.90;20.48;;;14.50;84.70;;;;;;5028964;28;20483;-87
2021/09/23 08:31:56;;;;;;;43.17;22.08;;;14.60;84.50;;;;;;5027669;28;20046;-83
2021/09/23 08:34:23;;;;;;;34.40;20.20;;;14.80;84.30;;;;;;5032073;28;20469;-82
2021/09/23 08:36:50;;;;;;;27.02;17.67;;;14.90;84.10;;;;;;5030817;28;20049;-82
2021/09/23 08:39:17;;;;;;;26.20;16.25;;;15.00;84.00;;;;;;5031103;28;20064;-82
2021/09/23 08:41:46;;;;;;;22.90;16.88;;;15.10;83.80;;;;;;5031064;28;20037;-82
2021/09/23 08:44:13;;;;;;;25.50;15.30;;;15.20;83.50;;;;;;5030739;28;20052;-83
2021/09/23 08:46:42;;;;;;;25.70;14.55;;;15.30;83.10;;;;;;5032896;28;20053;-83
2021/09/23 08:49:10;;;;;;;20.20;13.00;;;15.40;82.80;;;;;;5032322;28;20387;-84
2021/09/23 08:51:37;;;;;;;20.40;13.60;;;15.50;82.10;;;;;;5030602;28;20457;-83
2021/09/23 08:54:06;;;;;;;18.30;12.65;;;15.60;81.90;;;;;;5031551;28;20103;-83
2021/09/23 08:56:34;;;;;;;16.30;12.40;;;15.70;81.40;;;;;;5030432;28;20041;-83
2021/09/23 08:59:01;;;;;;;16.38;11.63;;;15.80;81.10;;;;;;5015160;28;20506;-84
2021/09/23 09:01:40;;;;;;;20.23;11.15;;;15.90;80.70;;;;;;5013187;28;20053;-84
2021/09/23 09:04:08;;;;;;;18.02;11.68;;;15.90;80.00;;;;;;5033978;28;20165;-84
2021/09/23 09:06:35;;;;;;;18.38;11.70;;;16.00;79.90;;;;;;5030475;28;20064;-83
2021/09/23 09:09:04;;;;;;;19.23;11.60;;;16.00;79.60;;;;;;5030418;28;20140;-84
2021/09/23 09:11:31;;;;;;;17.92;11.73;;;16.20;79.40;;;;;;5029784;28;20571;-83
2021/09/23 09:13:58;;;;;;;16.05;11.70;;;16.10;78.90;;;;;;5030848;28;20061;-84
2021/09/23 09:16:28;;;;;;;18.88;12.43;;;16.30;78.80;;;;;;5033983;28;20049;-84
2021/09/23 09:18:57;;;;;;;17.85;12.07;;;16.30;78.80;;;;;;5029876;28;20437;-84
2021/09/23 09:21:26;;;;;;;20.35;11.23;;;16.30;78.70;;;;;;5030389;28;20045;-84
2021/09/23 09:24:00;;;;;;;21.48;12.07;;;16.40;78.60;;;;;;5030294;28;20548;-85
2021/09/23 09:26:32;;;;;;;20.35;10.98;;;16.50;78.60;;;;;;5029855;28;20056;-83
2021/09/23 09:29:02;;;;;;;17.88;9.23;;;16.60;78.20;;;;;;5014260;28;20057;-84
2021/09/23 09:31:30;;;;;;;14.52;9.20;;;16.80;78.10;;;;;;5030545;28;20506;-83
2021/09/23 09:34:02;;;;;;;16.10;8.77;;;16.80;78.10;;;;;;5029148;28;20133;-84
2021/09/23 09:36:32;;;;;;;11.77;7.60;;;17.00;78.00;;;;;;5029812;28;20524;-84
2021/09/23 09:39:15;;;;;;;10.60;7.28;;;17.10;77.20;;;;;;5029507;28;20064;-84
2021/09/23 09:41:45;;;;;;;12.57;6.68;;;17.30;76.60;;;;;;5029503;28;20577;-85
2021/09/23 09:44:13;;;;;;;12.60;5.68;;;17.40;76.20;;;;;;5029463;28;20057;-83
2021/09/23 09:46:41;;;;;;;12.70;5.35;;;17.60;75.40;;;;;;5031028;28;20053;-82
2021/09/23 09:49:08;;;;;;;11.25;5.30;;;17.70;74.90;;;;;;5032608;28;20059;-84
2021/09/23 09:51:46;;;;;;;12.77;5.20;;;17.90;74.80;;;;;;5029463;28;20045;-84
2021/09/23 09:54:15;;;;;;;11.52;5.20;;;17.90;74.30;;;;;;5029485;28;20068;-84
2021/09/23 09:56:45;;;;;;;12.50;5.10;;;18.10;74.20;;;;;;5029438;28;20060;-84
2021/09/23 09:59:19;;;;;;;10.02;4.50;;;18.30;74.10;;;;;;5031540;28;20046;-84
2021/09/23 10:01:49;;;;;;;9.68;4.43;;;18.40;73.40;;;;;;5025484;28;20046;-84
2021/09/23 10:04:17;;;;;;;9.57;3.70;;;18.50;73.20;;;;;;5027313;28;20053;-84
2021/09/23 10:06:47;;;;;;;7.95;3.75;;;18.60;72.20;;;;;;5029174;28;20049;-84
2021/09/23 10:09:16;;;;;;;8.52;3.88;;;18.70;71.80;;;;;;5029059;28;20049;-84
2021/09/23 10:11:48;;;;;;;10.35;4.10;;;18.80;71.60;;;;;;5030680;28;20183;-83
2021/09/23 10:14:17;;;;;;;9.52;3.80;;;18.90;71.20;;;;;;5028942;28;20120;-85
2021/09/23 10:16:45;;;;;;;6.80;3.60;;;19.10;71.10;;;;;;5031518;28;20148;-84
2021/09/23 10:19:15;;;;;;;12.80;3.35;;;19.20;70.90;;;;;;5031245;28;20504;-84
2021/09/23 10:21:43;;;;;;;5.15;2.83;;;19.30;70.50;;;;;;5011655;28;20244;-85
2021/09/23 10:24:13;;;;;;;8.10;3.10;;;19.40;69.50;;;;;;5028931;28;20049;-84
2021/09/23 10:26:42;;;;;;;9.95;3.40;;;19.40;69.60;;;;;;5029601;28;20513;-86
2021/09/23 10:29:11;;;;;;;5.53;3.15;;;19.50;68.90;;;;;;5029001;28;20046;-85
2021/09/23 10:31:38;;;;;;;8.32;3.22;;;19.50;67.80;;;;;;5031257;28;20524;-83
2021/09/23 10:34:09;;;;;;;12.50;4.13;;;19.50;68.00;;;;;;5030210;28;20049;-83
2021/09/23 10:36:39;;;;;;;6.18;3.22;;;19.60;68.60;;;;;;5029003;28;20052;-87
2021/09/23 10:39:09;;;;;;;8.13;3.60;;;19.70;68.80;;;;;;5029010;28;20053;-86
2021/09/23 10:41:39;;;;;;;7.82;3.35;;;19.80;68.50;;;;;;5028107;28;20055;-86
2021/09/23 10:44:06;;;;;;;6.07;3.13;;;19.90;68.60;;;;;;5028631;28;20132;-85
2021/09/23 10:46:34;;;;;;;9.38;3.13;;;20.00;68.30;;;;;;5032301;28;20060;-86
2021/09/23 10:49:04;;;;;;;7.22;3.22;;;20.10;68.10;;;;;;5029697;28;20395;-87
2021/09/23 10:51:33;;;;;;;12.73;3.00;;;20.20;68.20;;;;;;5028400;28;20045;-87
2021/09/23 10:54:00;;;;;;;7.93;2.90;;;20.30;67.50;;;;;;5028575;28;20128;-86
2021/09/23 10:56:28;;;;;;;7.88;2.85;;;20.30;67.70;;;;;;5028067;28;20061;-86
2021/09/23 10:58:57;;;;;;;8.23;2.53;;;20.30;67.60;;;;;;5029148;28;20081;-84
2021/09/23 11:01:36;;;;;;;10.18;2.53;;;20.30;66.90;;;;;;5032116;28;20473;-86
2021/09/23 11:04:23;;;;;;;10.45;2.70;;;20.30;66.90;;;;;;5031702;28;20095;-87
2021/09/23 11:06:55;;;;;;;7.78;2.10;;;20.20;66.70;;;;;;5029646;28;20124;-87
2021/09/23 11:09:25;;;;;;;6.82;2.50;;;20.20;66.40;;;;;;5028079;28;20057;-83
2021/09/23 11:11:55;;;;;;;7.88;2.45;;;20.10;66.50;;;;;;5027756;28;20152;-84
2021/09/23 11:14:23;;;;;;;7.40;2.42;;;20.20;67.10;;;;;;5028707;28;20198;-86
2021/09/23 11:16:52;;;;;;;5.35;2.50;;;20.30;67.40;;;;;;5029498;28;20103;-85
2021/09/23 11:19:21;;;;;;;6.82;2.38;;;20.40;67.00;;;;;;5030740;28;20049;-85
2021/09/23 11:21:53;;;;;;;6.80;2.40;;;20.40;66.50;;;;;;5028042;28;20045;-84
2021/09/23 11:24:23;;;;;;;6.68;1.90;;;20.50;66.40;;;;;;5027719;28;20045;-85
2021/09/23 11:26:51;;;;;;;4.70;2.20;;;20.60;65.90;;;;;;5027196;28;20517;-85
2021/09/23 11:29:18;;;;;;;7.43;2.30;;;20.60;65.50;;;;;;5027909;28;20050;-84
2021/09/23 11:31:46;;;;;;;7.07;2.00;;;20.80;65.20;;;;;;5030438;28;20045;-84
2021/09/23 11:34:36;;;;;;;8.73;2.15;;;20.90;64.80;;;;;;5030217;28;20057;-84
2021/09/23 11:37:04;;;;;;;5.75;2.00;;;20.90;63.80;;;;;;5029375;28;20049;-84
2021/09/23 11:39:32;;;;;;;7.03;2.53;;;20.90;63.30;;;;;;5028562;28;20056;-84
2021/09/23 11:42:14;;;;;;;7.50;2.85;;;20.80;63.30;;;;;;5027602;28;20457;-84
2021/09/23 11:44:42;;;;;;;6.38;2.38;;;20.70;63.80;;;;;;5027650;28;20091;-83
2021/09/23 11:47:21;;;;;;;6.80;2.10;;;20.60;64.40;;;;;;5027399;28;20050;-84
2021/09/23 11:49:52;;;;;;;7.15;2.17;;;20.60;65.20;;;;;;5029272;28;20049;-84
2021/09/23 11:52:29;;;;;;;9.05;2.60;;;20.70;65.10;;;;;;5030538;28;20510;-84
2021/09/23 11:54:59;;;;;;;5.80;2.10;;;20.80;65.40;;;;;;5027164;28;20065;-84
2021/09/23 11:57:28;;;;;;;8.88;2.13;;;20.90;65.00;;;;;;5027933;28;20053;-84
2021/09/23 12:00:00;;;;;;;6.47;2.17;;;21.00;64.30;;;;;;5027543;28;20049;-84
2021/09/23 12:02:29;;;;;;;5.53;2.10;;;21.10;64.00;;;;;;5027364;28;20048;-85
2021/09/23 12:05:00;;;;;;;8.32;2.42;;;21.10;64.10;;;;;;5028226;28;20056;-84
2021/09/23 12:07:31;;;;;;;5.53;1.95;;;21.30;64.10;;;;;;5027555;28;20041;-84
2021/09/23 12:10:08;;;;;;;7.68;2.17;;;21.40;64.20;;;;;;5031455;28;20407;-83
2021/09/23 12:12:35;;;;;;;7.32;2.03;;;21.30;63.70;;;;;;5031832;28;20064;-82
2021/09/23 12:15:02;;;;;;;5.95;2.15;;;21.30;63.10;;;;;;5031391;28;20053;-83
2021/09/23 12:17:29;;;;;;;7.72;2.05;;;21.20;63.10;;;;;;5030566;28;20683;-83
2021/09/23 12:19:57;;;;;;;8.80;2.10;;;21.10;63.40;;;;;;5018624;28;20054;-83
2021/09/23 12:22:35;;;;;;;7.35;2.25;;;21.10;63.10;;;;;;5034000;28;20045;-83
2021/09/23 12:25:16;;;;;;;5.82;2.35;;;21.00;63.60;;;;;;5031587;28;20502;-83
2021/09/23 12:27:43;;;;;;;6.82;2.20;;;20.90;63.60;;;;;;5029757;28;20145;-83
2021/09/23 12:30:11;;;;;;;5.78;2.08;;;21.00;64.10;;;;;;5029795;28;20468;-83
2021/09/23 12:32:38;;;;;;;8.73;2.30;;;21.00;64.50;;;;;;5029816;28;20587;-83
2021/09/23 12:35:19;;;;;;;5.63;1.70;;;21.10;64.00;;;;;;5030133;28;20656;-85
2021/09/23 12:37:47;;;;;;;8.35;2.20;;;21.10;63.70;;;;;;5031974;28;20045;-83
2021/09/23 12:40:16;;;;;;;7.88;2.42;;;21.20;63.90;;;;;;5032321;28;20060;-82
2021/09/23 12:42:43;;;;;;;11.07;2.65;;;21.20;64.00;;;;;;5029645;28;20092;-83